sensor_id;sensor_type;location;lat;lon;timestamp;pressure;altitude;pressure_sealevel;temperature;humidity
15880;BME280;61999;51.514;14.614;2022-12-11T00:02:01;99371.91;;;-3.80;52.87
15880;BME280;61999;51.514;14.614;2022-12-11T00:04:30;99364.47;;;-3.61;52.46
15880;BME280;61999;51.514;14.614;2022-12-11T00:06:58;99363.88;;;-3.42;51.99
15880;BME280;61999;51.514;14.614;2022-12-11T00:09:28;99365.84;;;-3.51;51.68
15880;BME280;61999;51.514;14.614;2022-12-11T00:11:56;99364.97;;;-3.76;51.79
15880;BME280;61999;51.514;14.614;2022-12-11T00:14:24;99366.94;;;-3.58;51.91
15880;BME280;61999;51.514;14.614;2022-12-11T00:16:51;99368.69;;;-3.58;52.11
15880;BME280;61999;51.514;14.614;2022-12-11T00:19:20;99362.41;;;-3.50;51.87
15880;BME280;61999;51.514;14.614;2022-12-11T00:21:48;99360.50;;;-3.44;51.65
15880;BME280;61999;51.514;14.614;2022-12-11T00:24:16;99358.03;;;-3.48;51.91
15880;BME280;61999;51.514;14.614;2022-12-11T00:26:45;99357.25;;;-3.50;51.50
15880;BME280;61999;51.514;14.614;2022-12-11T00:29:13;99363.25;;;-3.51;51.39
15880;BME280;61999;51.514;14.614;2022-12-11T00:31:41;99360.63;;;-3.48;51.06
15880;BME280;61999;51.514;14.614;2022-12-11T00:34:10;99362.50;;;-3.53;51.42
15880;BME280;61999;51.514;14.614;2022-12-11T00:36:38;99364.38;;;-3.58;51.75
15880;BME280;61999;51.514;14.614;2022-12-11T00:39:06;99373.75;;;-3.83;51.72
15880;BME280;61999;51.514;14.614;2022-12-11T00:41:34;99372.00;;;-3.81;51.59
15880;BME280;61999;51.514;14.614;2022-12-11T00:44:04;99377.44;;;-3.91;52.31
15880;BME280;61999;51.514;14.614;2022-12-11T00:46:32;99367.28;;;-3.97;52.07
15880;BME280;61999;51.514;14.614;2022-12-11T00:49:00;99374.47;;;-3.78;52.04
15880;BME280;61999;51.514;14.614;2022-12-11T00:51:28;99372.03;;;-3.83;52.44
15880;BME280;61999;51.514;14.614;2022-12-11T00:53:56;99379.19;;;-3.93;53.03
15880;BME280;61999;51.514;14.614;2022-12-11T00:56:24;99375.41;;;-4.10;52.95
15880;BME280;61999;51.514;14.614;2022-12-11T00:58:52;99377.22;;;-3.84;52.43
15880;BME280;61999;51.514;14.614;2022-12-11T01:01:23;99375.91;;;-3.98;52.81
15880;BME280;61999;51.514;14.614;2022-12-11T01:03:52;99378.28;;;-3.92;52.36
15880;BME280;61999;51.514;14.614;2022-12-11T01:06:24;99377.13;;;-3.81;52.15
15880;BME280;61999;51.514;14.614;2022-12-11T01:08:53;99373.06;;;-3.88;52.74
15880;BME280;61999;51.514;14.614;2022-12-11T01:11:36;99374.16;;;-3.96;52.38
15880;BME280;61999;51.514;14.614;2022-12-11T01:14:04;99368.91;;;-3.93;52.41
15880;BME280;61999;51.514;14.614;2022-12-11T01:16:34;99365.16;;;-4.12;52.96
15880;BME280;61999;51.514;14.614;2022-12-11T01:19:02;99367.38;;;-4.00;52.31
15880;BME280;61999;51.514;14.614;2022-12-11T01:21:30;99376.44;;;-3.86;52.37
15880;BME280;61999;51.514;14.614;2022-12-11T01:23:58;99376.44;;;-3.86;52.24
15880;BME280;61999;51.514;14.614;2022-12-11T01:26:26;99375.00;;;-3.97;51.90
15880;BME280;61999;51.514;14.614;2022-12-11T01:28:56;99370.47;;;-3.88;52.41
15880;BME280;61999;51.514;14.614;2022-12-11T01:31:24;99361.69;;;-3.81;52.37
15880;BME280;61999;51.514;14.614;2022-12-11T01:33:54;99362.59;;;-4.12;52.77
15880;BME280;61999;51.514;14.614;2022-12-11T01:36:23;99357.44;;;-4.12;52.60
15880;BME280;61999;51.514;14.614;2022-12-11T01:38:51;99360.66;;;-4.04;52.29
15880;BME280;61999;51.514;14.614;2022-12-11T01:41:20;99362.03;;;-4.22;52.83
15880;BME280;61999;51.514;14.614;2022-12-11T01:44:02;99362.25;;;-4.59;52.92
15880;BME280;61999;51.514;14.614;2022-12-11T01:46:32;99371.66;;;-4.91;53.76
15880;BME280;61999;51.514;14.614;2022-12-11T01:49:08;99370.63;;;-4.84;54.75
15880;BME280;61999;51.514;14.614;2022-12-11T01:51:41;99363.84;;;-4.55;53.51
15880;BME280;61999;51.514;14.614;2022-12-11T01:54:16;99366.78;;;-4.69;53.35
15880;BME280;61999;51.514;14.614;2022-12-11T01:56:49;99366.03;;;-4.43;53.72
15880;BME280;61999;51.514;14.614;2022-12-11T01:59:23;99358.13;;;-4.65;53.26
15880;BME280;61999;51.514;14.614;2022-12-11T02:01:59;99359.16;;;-4.42;52.89
15880;BME280;61999;51.514;14.614;2022-12-11T02:04:35;99352.94;;;-4.33;52.54
15880;BME280;61999;51.514;14.614;2022-12-11T02:07:05;99353.97;;;-4.39;52.86
15880;BME280;61999;51.514;14.614;2022-12-11T02:09:37;99360.28;;;-4.51;52.38
15880;BME280;61999;51.514;14.614;2022-12-11T02:12:15;99360.13;;;-4.45;52.51
15880;BME280;61999;51.514;14.614;2022-12-11T02:14:55;99365.28;;;-4.45;51.98
15880;BME280;61999;51.514;14.614;2022-12-11T02:17:34;99369.50;;;-4.73;52.26
15880;BME280;61999;51.514;14.614;2022-12-11T02:20:15;99367.38;;;-4.90;52.99
15880;BME280;61999;51.514;14.614;2022-12-11T02:23:10;99367.47;;;-4.62;52.17
15880;BME280;61999;51.514;14.614;2022-12-11T02:25:54;99365.63;;;-5.22;53.01
15880;BME280;61999;51.514;14.614;2022-12-11T02:28:31;99370.78;;;-4.90;52.39
15880;BME280;61999;51.514;14.614;2022-12-11T02:31:06;99357.75;;;-4.52;52.11
15880;BME280;61999;51.514;14.614;2022-12-11T02:33:43;99371.25;;;-4.44;51.83
15880;BME280;61999;51.514;14.614;2022-12-11T02:36:15;99371.81;;;-4.35;51.63
15880;BME280;61999;51.514;14.614;2022-12-11T02:38:50;99365.03;;;-4.37;51.45
15880;BME280;61999;51.514;14.614;2022-12-11T02:41:21;99371.91;;;-4.38;51.54
15880;BME280;61999;51.514;14.614;2022-12-11T02:50:37;99354.53;;;-4.29;51.77
15880;BME280;61999;51.514;14.614;2022-12-11T02:53:07;99356.69;;;-4.16;51.75
15880;BME280;61999;51.514;14.614;2022-12-11T02:55:37;99363.16;;;-4.02;51.33
15880;BME280;61999;51.514;14.614;2022-12-11T02:58:15;99361.41;;;-4.00;51.10
15880;BME280;61999;51.514;14.614;2022-12-11T03:00:46;99363.31;;;-4.08;51.11
15880;BME280;61999;51.514;14.614;2022-12-11T03:03:14;99362.25;;;-4.00;51.16
15880;BME280;61999;51.514;14.614;2022-12-11T03:05:43;99355.59;;;-4.08;51.19
15880;BME280;61999;51.514;14.614;2022-12-11T03:08:12;99352.75;;;-4.27;51.35
15880;BME280;61999;51.514;14.614;2022-12-11T03:10:43;99354.84;;;-4.40;51.17
15880;BME280;61999;51.514;14.614;2022-12-11T03:13:14;99359.22;;;-4.14;51.31
15880;BME280;61999;51.514;14.614;2022-12-11T03:16:01;99354.78;;;-4.09;51.03
15880;BME280;61999;51.514;14.614;2022-12-11T03:18:38;99356.63;;;-4.14;51.08
15880;BME280;61999;51.514;14.614;2022-12-11T03:21:14;99354.84;;;-4.10;50.73
15880;BME280;61999;51.514;14.614;2022-12-11T03:23:50;99357.44;;;-4.12;50.81
15880;BME280;61999;51.514;14.614;2022-12-11T03:26:22;99365.91;;;-4.07;50.94
15880;BME280;61999;51.514;14.614;2022-12-11T03:28:58;99368.38;;;-4.04;50.92
15880;BME280;61999;51.514;14.614;2022-12-11T03:31:30;99361.47;;;-4.02;51.10
15880;BME280;61999;51.514;14.614;2022-12-11T03:34:10;99359.09;;;-4.11;50.82
15880;BME280;61999;51.514;14.614;2022-12-11T03:36:42;99356.69;;;-4.16;51.21
15880;BME280;61999;51.514;14.614;2022-12-11T03:39:17;99361.88;;;-4.17;50.82
15880;BME280;61999;51.514;14.614;2022-12-11T03:41:50;99362.78;;;-4.18;51.08
15880;BME280;61999;51.514;14.614;2022-12-11T03:44:21;99364.72;;;-4.26;50.94
15880;BME280;61999;51.514;14.614;2022-12-11T03:46:52;99362.97;;;-4.24;51.51
15880;BME280;61999;51.514;14.614;2022-12-11T03:49:25;99367.56;;;-4.06;51.37
15880;BME280;61999;51.514;14.614;2022-12-11T03:51:58;99366.72;;;-4.05;51.02
15880;BME280;61999;51.514;14.614;2022-12-11T03:54:28;99370.94;;;-4.04;51.12
15880;BME280;61999;51.514;14.614;2022-12-11T03:57:00;99363.16;;;-4.02;50.69
15880;BME280;61999;51.514;14.614;2022-12-11T03:59:33;99364.88;;;-4.01;50.83
15880;BME280;61999;51.514;14.614;2022-12-11T04:02:01;99362.25;;;-4.00;50.65
15880;BME280;61999;51.514;14.614;2022-12-11T04:04:36;99351.56;;;-4.17;50.62
15880;BME280;61999;51.514;14.614;2022-12-11T04:07:05;99350.72;;;-4.16;50.66
15880;BME280;61999;51.514;14.614;2022-12-11T04:09:34;99353.97;;;-4.11;50.77
15880;BME280;61999;51.514;14.614;2022-12-11T04:12:02;99350.53;;;-4.10;50.58
15880;BME280;61999;51.514;14.614;2022-12-11T04:14:30;99354.44;;;-4.26;50.37
15880;BME280;61999;51.514;14.614;2022-12-11T04:17:15;99359.97;;;-5.03;51.06
15880;BME280;61999;51.514;14.614;2022-12-11T04:20:05;99354.44;;;-4.56;50.98
15880;BME280;61999;51.514;14.614;2022-12-11T04:23:03;99363.22;;;-4.33;50.77
15880;BME280;61999;51.514;14.614;2022-12-11T04:25:49;99350.53;;;-4.40;50.36
15880;BME280;61999;51.514;14.614;2022-12-11T04:28:17;99358.09;;;-4.33;50.72
15880;BME280;61999;51.514;14.614;2022-12-11T04:30:48;99348.72;;;-4.36;50.45
15880;BME280;61999;51.514;14.614;2022-12-11T04:33:16;99343.91;;;-4.48;50.74
15880;BME280;61999;51.514;14.614;2022-12-11T04:35:44;99346.41;;;-4.45;50.53
15880;BME280;61999;51.514;14.614;2022-12-11T04:38:13;99341.84;;;-4.36;50.39
15880;BME280;61999;51.514;14.614;2022-12-11T04:40:41;99348.03;;;-4.43;50.36
15880;BME280;61999;51.514;14.614;2022-12-11T04:43:09;99347.06;;;-4.68;50.37
15880;BME280;61999;51.514;14.614;2022-12-11T04:45:37;99354.91;;;-4.43;50.21
15880;BME280;61999;51.514;14.614;2022-12-11T04:48:05;99349.22;;;-4.84;50.27
15880;BME280;61999;51.514;14.614;2022-12-11T04:50:34;99349.50;;;-4.95;50.63
15880;BME280;61999;51.514;14.614;2022-12-11T04:53:01;99340.91;;;-4.94;50.85
15880;BME280;61999;51.514;14.614;2022-12-11T04:55:31;99338.66;;;-5.39;51.24
15880;BME280;61999;51.514;14.614;2022-12-11T04:57:58;99333.38;;;-6.04;53.80
15880;BME280;61999;51.514;14.614;2022-12-11T05:00:26;99330.63;;;-5.59;52.83
15880;BME280;61999;51.514;14.614;2022-12-11T05:02:54;99327.47;;;-5.71;52.43
15880;BME280;61999;51.514;14.614;2022-12-11T05:05:22;99322.44;;;-5.41;52.00
15880;BME280;61999;51.514;14.614;2022-12-11T05:07:50;99338.09;;;-5.17;52.14
15880;BME280;61999;51.514;14.614;2022-12-11T05:10:18;99337.84;;;-5.08;51.70
15880;BME280;61999;51.514;14.614;2022-12-11T05:12:47;99329.03;;;-4.98;51.44
15880;BME280;61999;51.514;14.614;2022-12-11T05:15:15;99333.69;;;-5.12;51.74
15880;BME280;61999;51.514;14.614;2022-12-11T05:17:43;99331.44;;;-5.24;52.56
15880;BME280;61999;51.514;14.614;2022-12-11T05:20:11;99324.44;;;-5.52;53.09
15880;BME280;61999;51.514;14.614;2022-12-11T05:22:39;99324.38;;;-5.85;54.74
15880;BME280;61999;51.514;14.614;2022-12-11T05:25:07;99319.78;;;-5.36;53.27
15880;BME280;61999;51.514;14.614;2022-12-11T05:27:36;99312.41;;;-5.17;53.03
15880;BME280;61999;51.514;14.614;2022-12-11T05:30:07;99322.03;;;-4.93;53.05
15880;BME280;61999;51.514;14.614;2022-12-11T05:32:35;99315.16;;;-5.23;53.19
15880;BME280;61999;51.514;14.614;2022-12-11T05:35:04;99317.09;;;-5.00;52.98
15880;BME280;61999;51.514;14.614;2022-12-11T05:37:33;99320.31;;;-4.92;52.98
15880;BME280;61999;51.514;14.614;2022-12-11T05:40:03;99315.66;;;-4.80;52.56
15880;BME280;61999;51.514;14.614;2022-12-11T05:42:32;99317.38;;;-5.11;52.62
15880;BME280;61999;51.514;14.614;2022-12-11T05:45:00;99320.84;;;-5.45;53.66
15880;BME280;61999;51.514;14.614;2022-12-11T05:47:29;99320.38;;;-5.27;53.75
15880;BME280;61999;51.514;14.614;2022-12-11T05:49:57;99317.66;;;-4.89;53.10
15880;BME280;61999;51.514;14.614;2022-12-11T05:52:25;99322.41;;;-5.74;54.02
15880;BME280;61999;51.514;14.614;2022-12-11T05:54:53;99310.28;;;-6.43;56.73
15880;BME280;61999;51.514;14.614;2022-12-11T05:57:21;99309.84;;;-6.22;55.40
15880;BME280;61999;51.514;14.614;2022-12-11T05:59:49;99305.19;;;-6.06;56.20
15880;BME280;61999;51.514;14.614;2022-12-11T06:02:17;99300.88;;;-5.68;55.53
15880;BME280;61999;51.514;14.614;2022-12-11T06:04:46;99305.13;;;-5.33;54.83
15880;BME280;61999;51.514;14.614;2022-12-11T06:07:14;99291.59;;;-5.08;54.52
15880;BME280;61999;51.514;14.614;2022-12-11T06:09:42;99298.44;;;-5.07;53.99
15880;BME280;61999;51.514;14.614;2022-12-11T06:12:10;99299.03;;;-5.63;53.84
15880;BME280;61999;51.514;14.614;2022-12-11T06:14:38;99304.78;;;-5.87;55.12
15880;BME280;61999;51.514;14.614;2022-12-11T06:17:06;99294.75;;;-5.98;55.74
15880;BME280;61999;51.514;14.614;2022-12-11T06:19:34;99292.53;;;-5.76;56.22
15880;BME280;61999;51.514;14.614;2022-12-11T06:22:04;99291.94;;;-5.53;55.33
15880;BME280;61999;51.514;14.614;2022-12-11T06:24:31;99285.41;;;-5.65;55.56
15880;BME280;61999;51.514;14.614;2022-12-11T06:27:00;99293.22;;;-5.69;55.64
15880;BME280;61999;51.514;14.614;2022-12-11T06:29:27;99288.16;;;-5.73;55.59
15880;BME280;61999;51.514;14.614;2022-12-11T06:31:55;99286.84;;;-5.55;55.62
15880;BME280;61999;51.514;14.614;2022-12-11T06:34:23;99289.94;;;-5.42;54.93
15880;BME280;61999;51.514;14.614;2022-12-11T06:36:51;99291.47;;;-5.67;54.77
15880;BME280;61999;51.514;14.614;2022-12-11T06:39:20;99296.00;;;-5.44;54.19
15880;BME280;61999;51.514;14.614;2022-12-11T06:41:48;99302.00;;;-5.80;54.94
15880;BME280;61999;51.514;14.614;2022-12-11T06:44:16;99300.66;;;-5.59;54.47
15880;BME280;61999;51.514;14.614;2022-12-11T06:46:44;99303.63;;;-5.76;54.77
15880;BME280;61999;51.514;14.614;2022-12-11T06:49:12;99306.47;;;-5.52;54.30
15880;BME280;61999;51.514;14.614;2022-12-11T06:51:40;99305.88;;;-5.62;54.16
15880;BME280;61999;51.514;14.614;2022-12-11T06:54:07;99308.50;;;-6.01;55.26
15880;BME280;61999;51.514;14.614;2022-12-11T06:56:37;99308.19;;;-6.26;55.94
15880;BME280;61999;51.514;14.614;2022-12-11T06:59:04;99307.53;;;-6.34;56.42
15880;BME280;61999;51.514;14.614;2022-12-11T07:01:33;99314.22;;;-6.27;56.22
15880;BME280;61999;51.514;14.614;2022-12-11T07:04:01;99310.00;;;-5.56;54.72
15880;BME280;61999;51.514;14.614;2022-12-11T07:06:29;99308.13;;;-5.85;54.48
15880;BME280;61999;51.514;14.614;2022-12-11T07:08:56;99312.97;;;-5.39;54.43
15880;BME280;61999;51.514;14.614;2022-12-11T07:11:24;99316.25;;;-5.34;53.63
15880;BME280;61999;51.514;14.614;2022-12-11T07:13:54;99320.03;;;-6.19;54.62
15880;BME280;61999;51.514;14.614;2022-12-11T07:16:22;99322.69;;;-5.50;54.45
15880;BME280;61999;51.514;14.614;2022-12-11T07:18:50;99330.91;;;-5.37;55.15
15880;BME280;61999;51.514;14.614;2022-12-11T07:21:19;99334.03;;;-5.24;55.23
15880;BME280;61999;51.514;14.614;2022-12-11T07:23:49;99343.25;;;-5.17;53.34
15880;BME280;61999;51.514;14.614;2022-12-11T07:26:19;99341.84;;;-4.96;53.10
15880;BME280;61999;51.514;14.614;2022-12-11T07:28:48;99340.66;;;-4.85;52.84
15880;BME280;61999;51.514;14.614;2022-12-11T07:31:21;99334.72;;;-4.87;52.50
15880;BME280;61999;51.514;14.614;2022-12-11T07:33:52;99341.59;;;-5.20;52.37
15880;BME280;61999;51.514;14.614;2022-12-11T07:36:21;99339.16;;;-5.24;52.68
15880;BME280;61999;51.514;14.614;2022-12-11T07:38:49;99344.25;;;-5.23;52.51
15880;BME280;61999;51.514;14.614;2022-12-11T07:41:17;99343.72;;;-5.36;52.87
15880;BME280;61999;51.514;14.614;2022-12-11T07:43:46;99340.75;;;-5.55;53.85
15880;BME280;61999;51.514;14.614;2022-12-11T07:46:19;99344.41;;;-5.63;53.43
15880;BME280;61999;51.514;14.614;2022-12-11T07:48:48;99342.78;;;-5.67;53.28
15880;BME280;61999;51.514;14.614;2022-12-11T07:51:19;99344.69;;;-5.76;53.83
15880;BME280;61999;51.514;14.614;2022-12-11T07:53:49;99341.94;;;-5.34;52.43
15880;BME280;61999;51.514;14.614;2022-12-11T07:56:18;99345.31;;;-5.66;53.65
15880;BME280;61999;51.514;14.614;2022-12-11T07:58:46;99356.00;;;-6.64;54.73
15880;BME280;61999;51.514;14.614;2022-12-11T08:01:18;99352.41;;;-6.14;54.64
15880;BME280;61999;51.514;14.614;2022-12-11T08:03:48;99359.44;;;-5.85;53.58
15880;BME280;61999;51.514;14.614;2022-12-11T08:06:16;99359.28;;;-5.42;53.33
15880;BME280;61999;51.514;14.614;2022-12-11T08:08:44;99365.50;;;-5.51;53.46
15880;BME280;61999;51.514;14.614;2022-12-11T08:11:14;99361.63;;;-5.33;52.85
15880;BME280;61999;51.514;14.614;2022-12-11T08:13:42;99366.09;;;-5.07;52.29
15880;BME280;61999;51.514;14.614;2022-12-11T08:16:12;99366.13;;;-4.75;51.96
15880;BME280;61999;51.514;14.614;2022-12-11T08:18:44;99367.53;;;-4.65;51.66
15880;BME280;61999;51.514;14.614;2022-12-11T08:21:15;99364.28;;;-4.70;51.27
15880;BME280;61999;51.514;14.614;2022-12-11T08:23:44;99355.31;;;-4.88;51.71
15880;BME280;61999;51.514;14.614;2022-12-11T08:26:15;99354.31;;;-4.83;51.95
15880;BME280;61999;51.514;14.614;2022-12-11T08:28:43;99351.59;;;-5.09;52.03
15880;BME280;61999;51.514;14.614;2022-12-11T08:31:13;99351.84;;;-5.18;53.02
15880;BME280;61999;51.514;14.614;2022-12-11T08:33:45;99353.69;;;-5.23;52.46
15880;BME280;61999;51.514;14.614;2022-12-11T08:36:17;99341.88;;;-4.98;52.30
15880;BME280;61999;51.514;14.614;2022-12-11T08:38:46;99343.25;;;-5.17;52.67
15880;BME280;61999;51.514;14.614;2022-12-11T08:41:17;99332.31;;;-4.93;51.99
15880;BME280;61999;51.514;14.614;2022-12-11T08:43:46;99340.94;;;-5.62;52.79
15880;BME280;61999;51.514;14.614;2022-12-11T08:46:14;99347.31;;;-5.43;53.01
15880;BME280;61999;51.514;14.614;2022-12-11T08:48:44;99336.44;;;-5.18;52.68
15880;BME280;61999;51.514;14.614;2022-12-11T08:51:14;99336.88;;;-5.37;53.20
15880;BME280;61999;51.514;14.614;2022-12-11T08:53:43;99340.00;;;-5.24;53.14
15880;BME280;61999;51.514;14.614;2022-12-11T08:56:13;99339.72;;;-5.82;54.38
15880;BME280;61999;51.514;14.614;2022-12-11T08:58:42;99337.94;;;-5.80;53.77
15880;BME280;61999;51.514;14.614;2022-12-11T09:01:13;99336.19;;;-5.42;53.71
15880;BME280;61999;51.514;14.614;2022-12-11T09:03:42;99340.56;;;-5.13;53.15
15880;BME280;61999;51.514;14.614;2022-12-11T09:06:15;99337.63;;;-5.32;53.28
15880;BME280;61999;51.514;14.614;2022-12-11T09:08:46;99342.91;;;-5.05;52.76
15880;BME280;61999;51.514;14.614;2022-12-11T09:11:20;99340.91;;;-5.27;53.28
15880;BME280;61999;51.514;14.614;2022-12-11T09:13:48;99330.06;;;-5.38;52.80
15880;BME280;61999;51.514;14.614;2022-12-11T09:16:19;99324.69;;;-5.29;52.97
15880;BME280;61999;51.514;14.614;2022-12-11T09:18:50;99321.13;;;-5.23;52.88
15880;BME280;61999;51.514;14.614;2022-12-11T09:21:22;99332.34;;;-5.97;54.90
15880;BME280;61999;51.514;14.614;2022-12-11T09:23:53;99319.72;;;-5.35;53.73
15880;BME280;61999;51.514;14.614;2022-12-11T09:26:22;99328.81;;;-5.21;52.97
15880;BME280;61999;51.514;14.614;2022-12-11T09:28:50;99317.16;;;-5.02;52.21
15880;BME280;61999;51.514;14.614;2022-12-11T09:31:22;99322.84;;;-5.23;53.32
15880;BME280;61999;51.514;14.614;2022-12-11T09:33:52;99326.31;;;-5.24;52.75
15880;BME280;61999;51.514;14.614;2022-12-11T09:36:23;99315.06;;;-4.88;52.79
15880;BME280;61999;51.514;14.614;2022-12-11T09:38:51;99315.66;;;-4.80;51.89
15880;BME280;61999;51.514;14.614;2022-12-11T09:41:34;99326.25;;;-4.59;51.68
15880;BME280;61999;51.514;14.614;2022-12-11T09:44:19;99322.25;;;-4.69;51.73
15880;BME280;61999;51.514;14.614;2022-12-11T09:46:50;99317.34;;;-4.78;52.02
15880;BME280;61999;51.514;14.614;2022-12-11T09:49:31;99318.84;;;-4.71;51.52
15880;BME280;61999;51.514;14.614;2022-12-11T09:52:11;99318.75;;;-4.98;51.55
15880;BME280;61999;51.514;14.614;2022-12-11T09:54:48;99316.38;;;-5.06;53.04
15880;BME280;61999;51.514;14.614;2022-12-11T09:57:43;99311.78;;;-4.63;52.12
15880;BME280;61999;51.514;14.614;2022-12-11T10:00:21;99316.13;;;-5.28;51.88
15880;BME280;61999;51.514;14.614;2022-12-11T10:03:48;99307.06;;;-5.77;55.03
15880;BME280;61999;51.514;14.614;2022-12-11T10:06:24;99308.56;;;-5.01;53.04
15880;BME280;61999;51.514;14.614;2022-12-11T10:09:07;99308.47;;;-4.98;52.67
15880;BME280;61999;51.514;14.614;2022-12-11T10:12:00;99312.00;;;-5.67;54.07
15880;BME280;61999;51.514;14.614;2022-12-11T10:14:46;99304.72;;;-5.86;55.32
15880;BME280;61999;51.514;14.614;2022-12-11T10:17:22;99302.19;;;-6.64;56.17
15880;BME280;61999;51.514;14.614;2022-12-11T10:19:54;99298.66;;;-6.19;57.04
15880;BME280;61999;51.514;14.614;2022-12-11T10:22:29;99301.66;;;-5.64;56.15
15880;BME280;61999;51.514;14.614;2022-12-11T10:25:02;99296.78;;;-5.42;55.26
15880;BME280;61999;51.514;14.614;2022-12-11T10:27:39;99283.69;;;-6.00;55.10
15880;BME280;61999;51.514;14.614;2022-12-11T10:30:15;99287.03;;;-5.62;56.22
15880;BME280;61999;51.514;14.614;2022-12-11T10:32:55;99284.59;;;-5.67;55.96
15880;BME280;61999;51.514;14.614;2022-12-11T10:35:35;99286.00;;;-6.27;57.39
15880;BME280;61999;51.514;14.614;2022-12-11T10:38:15;99279.47;;;-6.40;56.49
15880;BME280;61999;51.514;14.614;2022-12-11T10:40:50;99275.50;;;-5.80;56.52
15880;BME280;61999;51.514;14.614;2022-12-11T10:43:18;99272.28;;;-5.54;56.10
15880;BME280;61999;51.514;14.614;2022-12-11T10:45:51;99264.88;;;-6.36;57.60
15880;BME280;61999;51.514;14.614;2022-12-11T10:48:20;99273.13;;;-6.25;56.24
15880;BME280;61999;51.514;14.614;2022-12-11T10:50:58;99267.50;;;-7.22;59.15
15880;BME280;61999;51.514;14.614;2022-12-11T10:53:28;99265.56;;;-7.11;60.17
15880;BME280;61999;51.514;14.614;2022-12-11T10:55:58;99263.31;;;-6.44;59.04
15880;BME280;61999;51.514;14.614;2022-12-11T10:58:29;99264.69;;;-6.29;57.87
15880;BME280;61999;51.514;14.614;2022-12-11T11:01:08;99261.47;;;-6.01;57.90
15880;BME280;61999;51.514;14.614;2022-12-11T11:03:52;99255.81;;;-6.16;57.90
15880;BME280;61999;51.514;14.614;2022-12-11T11:06:22;99248.63;;;-6.37;57.87
15880;BME280;61999;51.514;14.614;2022-12-11T11:08:52;99251.06;;;-6.70;57.85
15880;BME280;61999;51.514;14.614;2022-12-11T11:11:27;99245.66;;;-6.19;57.71
15880;BME280;61999;51.514;14.614;2022-12-11T11:14:13;99243.84;;;-5.46;56.25
15880;BME280;61999;51.514;14.614;2022-12-11T11:16:45;99254.47;;;-5.28;54.79
15880;BME280;61999;51.514;14.614;2022-12-11T11:19:21;99249.19;;;-7.02;57.60
15880;BME280;61999;51.514;14.614;2022-12-11T11:21:55;99243.56;;;-7.19;61.45
15880;BME280;61999;51.514;14.614;2022-12-11T11:24:29;99233.22;;;-6.37;59.23
15880;BME280;61999;51.514;14.614;2022-12-11T11:27:10;99224.66;;;-6.73;58.83
15880;BME280;61999;51.514;14.614;2022-12-11T11:29:40;99232.56;;;-6.84;59.33
15880;BME280;61999;51.514;14.614;2022-12-11T11:32:17;99221.31;;;-6.38;58.62
15880;BME280;61999;51.514;14.614;2022-12-11T11:34:46;99222.06;;;-5.99;57.12
15880;BME280;61999;51.514;14.614;2022-12-11T11:37:30;99214.84;;;-6.54;58.08
15880;BME280;61999;51.514;14.614;2022-12-11T11:40:10;99218.75;;;-5.68;57.29
15880;BME280;61999;51.514;14.614;2022-12-11T11:42:48;99217.91;;;-6.39;57.62
15880;BME280;61999;51.514;14.614;2022-12-11T11:45:24;99222.75;;;-5.92;56.66
15880;BME280;61999;51.514;14.614;2022-12-11T11:48:06;99217.91;;;-6.77;58.64
15880;BME280;61999;51.514;14.614;2022-12-11T11:50:44;99225.38;;;-6.67;57.25
15880;BME280;61999;51.514;14.614;2022-12-11T11:53:19;99216.47;;;-6.50;59.01
15880;BME280;61999;51.514;14.614;2022-12-11T11:56:00;99214.66;;;-6.45;56.46
15880;BME280;61999;51.514;14.614;2022-12-11T11:58:38;99216.38;;;-6.11;55.83
15880;BME280;61999;51.514;14.614;2022-12-11T12:01:14;99218.28;;;-6.18;57.23
15880;BME280;61999;51.514;14.614;2022-12-11T12:03:44;99217.72;;;-5.62;55.83
15880;BME280;61999;51.514;14.614;2022-12-11T12:06:27;99218.66;;;-5.34;54.35
15880;BME280;61999;51.514;14.614;2022-12-11T12:09:13;99222.38;;;-5.44;54.24
15880;BME280;61999;51.514;14.614;2022-12-11T12:11:51;99217.78;;;-5.65;54.33
15880;BME280;61999;51.514;14.614;2022-12-11T12:14:30;99214.94;;;-5.53;54.38
15880;BME280;61999;51.514;14.614;2022-12-11T12:17:30;99212.56;;;-5.30;54.03
15880;BME280;61999;51.514;14.614;2022-12-11T12:20:12;99208.88;;;-4.62;53.35
15880;BME280;61999;51.514;14.614;2022-12-11T12:22:58;99211.34;;;-5.16;52.78
15880;BME280;61999;51.514;14.614;2022-12-11T12:25:39;99216.03;;;-5.63;53.98
15880;BME280;61999;51.514;14.614;2022-12-11T12:28:21;99207.88;;;-5.15;53.40
15880;BME280;61999;51.514;14.614;2022-12-11T12:31:13;99211.66;;;-5.29;53.41
15880;BME280;61999;51.514;14.614;2022-12-11T12:33:59;99208.78;;;-5.16;53.32
15880;BME280;61999;51.514;14.614;2022-12-11T12:36:42;99207.66;;;-4.78;52.65
15880;BME280;61999;51.514;14.614;2022-12-11T12:39:21;99208.88;;;-4.33;52.18
15880;BME280;61999;51.514;14.614;2022-12-11T12:42:01;99209.22;;;-4.46;51.38
15880;BME280;61999;51.514;14.614;2022-12-11T12:44:40;99210.06;;;-4.45;51.49
15880;BME280;61999;51.514;14.614;2022-12-11T12:47:16;99199.44;;;-4.35;51.37
15880;BME280;61999;51.514;14.614;2022-12-11T12:49:48;99195.88;;;-4.57;50.57
15880;BME280;61999;51.514;14.614;2022-12-11T12:52:22;99205.84;;;-5.04;52.50
15880;BME280;61999;51.514;14.614;2022-12-11T12:54:56;99200.06;;;-4.83;52.22
15880;BME280;61999;51.514;14.614;2022-12-11T12:57:44;99189.34;;;-4.67;51.53
15880;BME280;61999;51.514;14.614;2022-12-11T13:00:31;99191.81;;;-5.53;52.47
15880;BME280;61999;51.514;14.614;2022-12-11T13:03:12;99187.47;;;-4.62;51.83
15880;BME280;61999;51.514;14.614;2022-12-11T13:05:45;99197.75;;;-4.62;51.28
15880;BME280;61999;51.514;14.614;2022-12-11T13:08:24;99195.53;;;-4.74;50.88
15880;BME280;61999;51.514;14.614;2022-12-11T13:11:01;99190.97;;;-4.65;50.88
15880;BME280;61999;51.514;14.614;2022-12-11T13:13:35;99195.09;;;-4.59;50.91
15880;BME280;61999;51.514;14.614;2022-12-11T13:16:24;99196.88;;;-4.35;50.54
15880;BME280;61999;51.514;14.614;2022-12-11T13:18:54;99194.81;;;-4.23;50.50
15880;BME280;61999;51.514;14.614;2022-12-11T13:21:29;99192.53;;;-4.89;50.35
15880;BME280;61999;51.514;14.614;2022-12-11T13:24:16;99194.38;;;-5.53;52.14
15880;BME280;61999;51.514;14.614;2022-12-11T13:26:51;99194.06;;;-5.11;51.87